Time;durP1;ratioP1;P1;durP2;ratioP2;P2;SDS_P1;SDS_P2;PMS_P1;PMS_P2;Temp;Humidity;BMP_temperature;BMP_pressure;BME280_temperature;BME280_humidity;BME280_pressure;Samples;Min_cycle;Max_cycle;Signal;HPM_P1;HPM_P2
2023/01/10 00:02:07;;;;;;;0.63;0.63;;;;;;;2.14;51.34;91796.97;5030736;28;20046;-79
2023/01/10 00:04:33;;;;;;;0.60;0.60;;;;;;;2.15;51.60;91808.84;5030834;28;20045;-78
2023/01/10 00:06:58;;;;;;;0.50;0.50;;;;;;;2.17;51.66;91801.63;5012682;28;20519;-77
2023/01/10 00:09:24;;;;;;;0.68;0.68;;;;;;;2.31;50.59;91806.34;5028318;28;20045;-77
2023/01/10 00:14:34;;;;;;;0.70;0.70;;;;;;;2.51;49.76;91809.00;5031837;28;20048;-80
2023/01/10 00:17:03;;;;;;;1.05;0.70;;;;;;;2.53;49.82;91809.53;5035591;28;20033;-79
2023/01/10 00:19:29;;;;;;;0.60;0.60;;;;;;;2.67;49.48;91820.94;5036394;28;20036;-80
2023/01/10 00:21:56;;;;;;;0.70;0.52;;;;;;;2.60;50.80;91824.78;5036375;28;20041;-80
2023/01/10 00:24:22;;;;;;;0.50;0.50;;;;;;;2.70;49.85;91824.81;5035617;28;20037;-80
2023/01/10 00:26:50;;;;;;;0.50;0.50;;;;;;;2.71;49.20;91837.50;5036527;28;20541;-77
2023/01/10 00:29:21;;;;;;;0.50;0.50;;;;;;;2.79;49.80;91840.63;5034994;28;20346;-80
2023/01/10 00:31:47;;;;;;;0.45;0.45;;;;;;;2.93;49.00;91828.78;5036647;28;20043;-80
2023/01/10 00:34:13;;;;;;;0.63;0.63;;;;;;;2.84;50.06;91846.59;5033652;28;20067;-80
2023/01/10 00:36:40;;;;;;;0.77;0.77;;;;;;;2.85;49.60;91842.19;5035368;28;20305;-79
2023/01/10 00:39:07;;;;;;;0.77;0.60;;;;;;;2.97;49.13;91849.72;5035207;28;20124;-79
2023/01/10 00:44:17;;;;;;;0.80;0.80;;;;;;;2.78;51.35;91870.88;5035561;28;20037;-79
2023/01/10 00:46:43;;;;;;;0.50;0.50;;;;;;;2.64;52.44;91862.81;5036089;28;20407;-80
2023/01/10 00:49:10;;;;;;;0.50;0.50;;;;;;;2.52;52.97;91869.19;5035943;28;20033;-79
2023/01/10 00:51:36;;;;;;;0.70;0.70;;;;;;;2.41;52.89;91869.16;5036351;28;20225;-80
2023/01/10 00:54:02;;;;;;;0.70;0.70;;;;;;;2.39;52.97;91878.19;5036150;28;20133;-80
2023/01/10 00:56:28;;;;;;;0.73;0.73;;;;;;;2.27;55.14;91891.28;5035920;28;20018;-80
2023/01/10 00:58:53;;;;;;;1.40;0.88;;;;;;;2.19;55.21;91889.19;5034695;28;20045;-80
2023/01/10 01:01:19;;;;;;;0.60;0.60;;;;;;;2.29;54.47;91890.00;5036629;28;20053;-80
2023/01/10 01:03:44;;;;;;;0.70;0.65;;;;;;;2.25;55.81;91888.97;5036343;28;20132;-80
2023/01/10 01:06:10;;;;;;;0.82;0.77;;;;;;;2.18;55.55;91896.13;5034307;28;20116;-79
2023/01/10 01:08:35;;;;;;;0.60;0.60;;;;;;;2.16;55.24;91900.78;5033961;28;20013;-80
2023/01/10 01:11:01;;;;;;;0.60;0.60;;;;;;;2.29;54.01;91902.16;5035957;28;20037;-80
2023/01/10 01:13:27;;;;;;;0.60;0.60;;;;;;;2.54;52.81;91909.25;5034497;28;20092;-80
2023/01/10 01:15:52;;;;;;;0.60;0.60;;;;;;;2.63;53.33;91912.91;5035592;28;20152;-80
2023/01/10 01:18:20;;;;;;;0.75;0.50;;;;;;;2.74;53.37;91913.75;5035357;28;20026;-80
2023/01/10 01:20:47;;;;;;;0.82;0.82;;;;;;;2.74;53.24;91923.31;5034086;28;20060;-80
2023/01/10 01:23:14;;;;;;;0.60;0.60;;;;;;;2.74;53.24;91923.31;5035708;28;20041;-80
2023/01/10 01:25:40;;;;;;;0.60;0.60;;;;;;;2.95;53.68;91929.34;5001061;28;20089;-80
2023/01/10 01:28:06;;;;;;;0.50;0.50;;;;;;;3.01;53.33;91926.53;5033931;28;20018;-78
2023/01/10 01:30:32;;;;;;;0.68;0.68;;;;;;;2.98;53.12;91944.38;5035585;28;20049;-80
2023/01/10 01:32:58;;;;;;;0.88;0.60;;;;;;;2.89;53.51;91938.91;5034110;28;20033;-81
2023/01/10 01:35:24;;;;;;;0.68;0.68;;;;;;;2.89;53.73;91946.66;5034244;28;20053;-80
2023/01/10 01:37:49;;;;;;;0.50;0.50;;;;;;;2.88;54.37;91945.09;5035642;28;20040;-79
2023/01/10 01:40:20;;;;;;;0.60;0.60;;;;;;;2.94;52.78;91954.44;5035682;28;20033;-79
2023/01/10 01:42:47;;;;;;;0.70;0.70;;;;;;;3.17;52.50;91953.22;5032893;28;20050;-80
2023/01/10 01:45:13;;;;;;;0.60;0.60;;;;;;;3.19;52.41;91945.22;5013365;28;20042;-79
2023/01/10 01:47:43;;;;;;;0.50;0.50;;;;;;;3.11;51.89;91970.53;5015239;28;20040;-80
2023/01/10 01:50:23;;;;;;;0.70;0.70;;;;;;;3.22;51.76;91950.69;5017258;28;20060;-80
2023/01/10 01:52:55;;;;;;;0.60;0.60;;;;;;;3.45;49.47;91975.31;5035348;28;20037;-80
2023/01/10 01:55:23;;;;;;;0.57;0.57;;;;;;;3.47;49.80;91982.84;5035414;28;20037;-79
2023/01/10 01:57:52;;;;;;;0.60;0.60;;;;;;;3.59;49.70;91987.78;5035188;28;20178;-79
2023/01/10 02:00:18;;;;;;;1.02;0.65;;;;;;;3.55;49.58;91977.16;5035659;28;20037;-78
2023/01/10 02:02:51;;;;;;;0.70;0.70;;;;;;;3.46;50.88;91984.63;5034080;28;20144;-78
2023/01/10 02:05:21;;;;;;;0.40;0.40;;;;;;;3.59;49.19;92000.72;5015590;28;20037;-78
2023/01/10 02:07:51;;;;;;;0.50;0.50;;;;;;;3.58;50.31;91988.78;5031984;28;20033;-79
2023/01/10 02:10:24;;;;;;;0.60;0.60;;;;;;;3.57;49.58;91984.66;5033089;28;20128;-78
2023/01/10 02:12:54;;;;;;;0.77;0.73;;;;;;;3.48;49.69;91972.22;5033035;28;20061;-79
2023/01/10 02:15:19;;;;;;;0.60;0.60;;;;;;;3.44;50.39;91994.44;5014642;28;20526;-79
2023/01/10 02:17:51;;;;;;;0.65;0.65;;;;;;;3.47;50.89;91986.19;5031383;28;20041;-79
2023/01/10 02:20:19;;;;;;;0.60;0.60;;;;;;;3.46;49.94;91982.03;5032208;28;20072;-78
2023/01/10 02:23:00;;;;;;;0.50;0.50;;;;;;;3.36;50.06;92001.94;5032393;28;20037;-79
2023/01/10 02:25:35;;;;;;;0.60;0.60;;;;;;;3.36;49.34;92002.72;5033902;28;20438;-78
2023/01/10 02:28:22;;;;;;;0.55;0.55;;;;;;;3.32;49.31;92002.44;5033341;28;20060;-79
2023/01/10 02:30:50;;;;;;;0.50;0.50;;;;;;;3.53;48.05;92002.50;5041363;28;20132;-78
2023/01/10 02:33:42;;;;;;;1.00;0.68;;;;;;;3.50;47.66;92021.91;5042378;28;20064;-78
2023/01/10 02:36:29;;;;;;;0.80;0.80;;;;;;;3.61;46.75;92016.78;5015216;28;20147;-78
2023/01/10 02:39:04;;;;;;;0.50;0.50;;;;;;;3.71;46.63;92025.31;4994447;28;20091;-79
2023/01/10 02:41:54;;;;;;;0.60;0.60;;;;;;;3.94;44.66;92018.94;5027475;28;20034;-78
2023/01/10 02:44:33;;;;;;;0.52;0.52;;;;;;;4.01;44.16;92017.88;5010883;28;20042;-78
2023/01/10 02:47:02;;;;;;;0.60;0.60;;;;;;;3.93;45.93;92022.53;5027544;28;20127;-77
2023/01/10 02:49:27;;;;;;;1.95;0.73;;;;;;;3.99;46.04;92032.94;5016844;28;20554;-79
2023/01/10 02:51:53;;;;;;;0.55;0.55;;;;;;;4.09;44.40;91999.25;5011482;28;20046;-78
2023/01/10 02:54:25;;;;;;;0.50;0.50;;;;;;;4.12;42.75;92029.81;5012942;28;20044;-79
2023/01/10 02:57:12;;;;;;;0.60;0.60;;;;;;;4.20;42.00;92018.19;5012126;28;20412;-79
2023/01/10 03:00:15;;;;;;;0.60;0.60;;;;;;;4.14;46.07;92031.13;5011737;28;20060;-77
2023/01/10 03:02:57;;;;;;;0.60;0.60;;;;;;;4.26;42.54;92041.25;5012465;28;20037;-79
2023/01/10 03:05:54;;;;;;;0.60;0.60;;;;;;;4.11;46.00;92043.81;5026970;28;20403;-78
2023/01/10 03:08:32;;;;;;;0.60;0.60;;;;;;;3.99;48.25;92040.69;5030102;28;20104;-77
2023/01/10 03:11:04;;;;;;;0.60;0.60;;;;;;;3.85;49.81;92036.00;5031754;28;20040;-78
2023/01/10 03:13:39;;;;;;;0.77;0.77;;;;;;;3.75;48.81;92025.59;5030236;28;20423;-78
2023/01/10 03:16:08;;;;;;;0.77;0.60;;;;;;;3.72;48.74;92044.25;5031879;28;20091;-79
2023/01/10 03:19:14;;;;;;;0.50;0.50;;;;;;;3.55;50.53;92037.44;5029431;28;20231;-79
2023/01/10 03:21:43;;;;;;;0.70;0.70;;;;;;;3.32;51.37;92046.41;5032200;28;20041;-78
2023/01/10 03:24:26;;;;;;;0.77;0.77;;;;;;;3.14;53.00;92052.03;5030952;28;20049;-79
2023/01/10 03:26:57;;;;;;;0.65;0.65;;;;;;;3.03;51.38;92064.09;5030302;28;20109;-78
2023/01/10 03:29:30;;;;;;;0.77;0.70;;;;;;;2.90;53.20;92080.06;5012916;28;20562;-79
2023/01/10 03:32:02;;;;;;;0.70;0.70;;;;;;;3.04;50.62;92072.63;5030692;28;20033;-79
2023/01/10 03:34:27;;;;;;;0.70;0.70;;;;;;;3.20;52.21;92070.91;5031321;28;20450;-78
2023/01/10 03:37:04;;;;;;;0.60;0.60;;;;;;;3.09;53.93;92075.28;5029664;28;20029;-78
2023/01/10 03:39:52;;;;;;;0.60;0.60;;;;;;;3.26;53.51;92096.56;5029773;28;20099;-78
2023/01/10 03:44:42;;;;;;;0.80;0.70;;;;;;;3.23;54.25;92091.13;5029943;28;20030;-79
2023/01/10 03:45:26;;;;;;;0.50;0.50;;;;;;;3.05;54.30;92089.72;5026787;28;20041;-78
2023/01/10 03:47:54;;;;;;;0.47;0.47;;;;;;;3.01;54.19;92092.03;5029753;28;20037;-78
2023/01/10 03:50:28;;;;;;;0.60;0.60;;;;;;;2.89;51.88;92094.03;5033761;28;20060;-79
2023/01/10 03:52:55;;;;;;;0.47;0.47;;;;;;;2.97;50.79;92087.59;5045512;28;20432;-79
2023/01/10 03:55:25;;;;;;;0.50;0.50;;;;;;;2.96;50.64;92106.75;5043900;28;20107;-79
2023/01/10 03:57:51;;;;;;;0.60;0.60;;;;;;;2.84;49.05;92101.75;5040716;28;20044;-79
2023/01/10 04:00:17;;;;;;;0.70;0.70;;;;;;;2.99;45.16;92094.06;5034203;28;20041;-78
2023/01/10 04:02:43;;;;;;;0.60;0.60;;;;;;;3.29;43.42;92100.47;5035028;28;20523;-78
2023/01/10 04:05:09;;;;;;;0.63;0.63;;;;;;;3.20;45.28;92112.31;5033947;28;20025;-78
2023/01/10 04:07:35;;;;;;;0.60;0.60;;;;;;;3.15;40.19;92109.69;5032204;28;20053;-78
2023/01/10 04:10:01;;;;;;;0.60;0.60;;;;;;;3.23;40.40;92106.66;5034602;28;20167;-77
2023/01/10 04:12:27;;;;;;;0.60;0.60;;;;;;;3.59;38.53;92110.19;5034919;28;20083;-79
2023/01/10 04:14:52;;;;;;;0.60;0.60;;;;;;;3.66;38.63;92139.22;5033794;28;20033;-78
2023/01/10 04:17:18;;;;;;;0.50;0.50;;;;;;;4.14;36.61;92114.03;5034288;28;20392;-79
2023/01/10 04:19:44;;;;;;;0.50;0.50;;;;;;;4.13;37.72;92125.41;5034337;28;20388;-81
2023/01/10 04:22:11;;;;;;;2.85;0.60;;;;;;;4.26;37.27;92133.75;5034824;28;20488;-78
2023/01/10 04:24:37;;;;;;;0.95;0.52;;;;;;;4.13;38.09;92138.38;5033552;28;20112;-79
2023/01/10 04:27:03;;;;;;;0.60;0.60;;;;;;;4.12;37.60;92154.16;5032051;28;20466;-79
2023/01/10 04:29:28;;;;;;;0.93;0.65;;;;;;;4.14;37.47;92142.53;5035834;28;20017;-80
2023/01/10 04:31:54;;;;;;;0.65;0.65;;;;;;;4.13;40.06;92155.72;5033149;28;20432;-79
2023/01/10 04:34:20;;;;;;;0.50;0.50;;;;;;;4.09;37.91;92150.25;5036028;28;20435;-80
2023/01/10 04:36:46;;;;;;;0.55;0.55;;;;;;;4.02;38.59;92164.50;5036673;28;20555;-80
2023/01/10 04:39:11;;;;;;;0.60;0.60;;;;;;;3.97;38.63;92173.78;5035656;28;20053;-80
2023/01/10 04:41:37;;;;;;;0.60;0.60;;;;;;;4.02;39.09;92174.84;5037516;28;20037;-80
2023/01/10 04:44:04;;;;;;;0.60;0.60;;;;;;;3.99;41.52;92181.31;5033444;28;20041;-78
2023/01/10 04:46:30;;;;;;;0.70;0.70;;;;;;;3.95;39.47;92183.63;5034676;28;20041;-78
2023/01/10 04:48:57;;;;;;;0.70;0.70;;;;;;;4.06;37.08;92194.81;5034295;28;20124;-78
2023/01/10 04:51:24;;;;;;;0.60;0.60;;;;;;;4.09;38.54;92206.47;5033099;28;20029;-78
2023/01/10 04:53:49;;;;;;;0.43;0.40;;;;;;;4.06;38.51;92204.41;5034254;28;20402;-78
2023/01/10 04:56:17;;;;;;;0.55;0.55;;;;;;;3.94;42.88;92196.81;5034302;28;20034;-78
2023/01/10 04:58:43;;;;;;;0.60;0.60;;;;;;;3.97;42.78;92214.47;5033217;28;20044;-76
2023/01/10 05:01:22;;;;;;;0.45;0.45;;;;;;;3.77;42.59;92224.72;5032991;28;20037;-78
2023/01/10 05:03:48;;;;;;;0.65;0.55;;;;;;;3.72;40.11;92217.69;5032849;28;20048;-78
2023/01/10 05:06:15;;;;;;;0.70;0.70;;;;;;;3.74;40.67;92236.34;5034094;28;20029;-78
2023/01/10 05:08:41;;;;;;;1.45;0.80;;;;;;;3.62;42.23;92251.28;5016267;28;20037;-78
2023/01/10 05:11:07;;;;;;;1.00;0.55;;;;;;;3.59;40.93;92252.56;5033928;28;20423;-78
2023/01/10 05:13:32;;;;;;;0.60;0.60;;;;;;;3.58;42.23;92261.38;5031749;28;20080;-78
2023/01/10 05:15:58;;;;;;;1.00;0.90;;;;;;;3.56;42.58;92271.19;5032829;28;20135;-78
2023/01/10 05:18:25;;;;;;;1.30;0.70;;;;;;;3.57;42.30;92253.84;5033727;28;20107;-79
2023/01/10 05:20:51;;;;;;;0.57;0.57;;;;;;;3.42;43.36;92260.44;5033860;28;20140;-78
2023/01/10 05:23:17;;;;;;;2.15;1.00;;;;;;;3.32;44.91;92268.16;5032803;28;20041;-77
2023/01/10 05:25:42;;;;;;;4.03;1.20;;;;;;;3.13;46.11;92250.41;5032603;28;20128;-79
2023/01/10 05:28:08;;;;;;;3.50;0.90;;;;;;;2.98;45.61;92265.78;5032638;28;20025;-78
2023/01/10 05:30:34;;;;;;;0.80;0.60;;;;;;;3.05;43.01;92266.34;5030882;28;20033;-78
2023/01/10 05:32:59;;;;;;;0.60;0.60;;;;;;;3.09;43.33;92277.78;5033871;28;20522;-78
2023/01/10 05:35:25;;;;;;;0.50;0.50;;;;;;;3.20;42.01;92276.06;5033654;28;20076;-78
2023/01/10 05:37:51;;;;;;;0.68;0.68;;;;;;;3.11;42.59;92275.72;5033831;28;20376;-78
2023/01/10 05:40:17;;;;;;;0.52;0.52;;;;;;;3.12;42.18;92282.47;5033927;28;20052;-78
2023/01/10 05:42:42;;;;;;;0.88;0.70;;;;;;;3.16;41.33;92275.00;5032670;28;20129;-78
2023/01/10 05:45:08;;;;;;;0.85;0.70;;;;;;;3.11;41.91;92287.88;5028108;28;20772;-79
2023/01/10 05:47:34;;;;;;;0.50;0.50;;;;;;;3.26;41.25;92295.75;5026631;28;20037;-78
2023/01/10 05:49:59;;;;;;;0.57;0.57;;;;;;;3.20;41.63;92301.13;5029941;28;20102;-79
2023/01/10 05:52:25;;;;;;;0.98;0.70;;;;;;;3.18;41.65;92282.53;5018744;28;20393;-79
2023/01/10 05:54:51;;;;;;;0.60;0.60;;;;;;;3.20;41.21;92289.00;5002734;28;20073;-80
2023/01/10 05:57:18;;;;;;;1.15;0.70;;;;;;;3.23;40.91;92311.00;5031035;28;20052;-79
2023/01/10 05:59:43;;;;;;;1.00;0.65;;;;;;;3.26;41.34;92297.56;5032039;28;20045;-78
2023/01/10 06:02:09;;;;;;;0.70;0.60;;;;;;;3.35;40.26;92306.44;5013996;28;20045;-78
2023/01/10 06:04:35;;;;;;;0.75;0.70;;;;;;;3.52;39.68;92301.94;5033317;28;20480;-79
2023/01/10 06:07:20;;;;;;;2.58;0.75;;;;;;;3.68;39.05;92315.78;5028296;28;20029;-78
2023/01/10 06:09:46;;;;;;;0.50;0.50;;;;;;;3.79;40.14;92329.59;5030048;28;20048;-79
2023/01/10 06:12:11;;;;;;;0.70;0.70;;;;;;;3.68;39.75;92327.94;5033549;28;20033;-79
2023/01/10 06:14:37;;;;;;;0.50;0.50;;;;;;;3.55;40.45;92331.72;5034091;28;20057;-79
2023/01/10 06:17:07;;;;;;;0.50;0.50;;;;;;;3.34;41.77;92325.59;5033718;28;20428;-80
2023/01/10 06:19:33;;;;;;;0.77;0.77;;;;;;;3.24;41.19;92341.03;5033003;28;20388;-78
2023/01/10 06:21:58;;;;;;;0.63;0.60;;;;;;;3.33;39.91;92329.19;5034303;28;20036;-80
2023/01/10 06:24:24;;;;;;;0.60;0.60;;;;;;;3.28;39.07;92335.09;5036973;28;20466;-79
2023/01/10 06:26:49;;;;;;;0.57;0.57;;;;;;;3.15;40.54;92350.25;5018946;28;20399;-80
2023/01/10 06:29:15;;;;;;;0.75;0.75;;;;;;;3.14;40.19;92352.06;5035764;28;20029;-79
2023/01/10 06:31:41;;;;;;;0.90;0.57;;;;;;;3.15;37.20;92342.47;5037371;28;20025;-79
2023/01/10 06:34:06;;;;;;;0.60;0.60;;;;;;;3.54;39.63;92356.06;5034620;28;20064;-79
2023/01/10 06:36:32;;;;;;;0.50;0.50;;;;;;;3.61;37.87;92355.88;5036185;28;20047;-80
2023/01/10 06:38:57;;;;;;;0.70;0.70;;;;;;;3.67;38.16;92365.22;5018520;28;20038;-80
2023/01/10 06:41:23;;;;;;;0.60;0.60;;;;;;;3.61;40.13;92366.22;5036393;28;20517;-79
2023/01/10 06:43:49;;;;;;;0.70;0.70;;;;;;;3.36;41.93;92367.53;5035461;28;20041;-80
2023/01/10 06:46:18;;;;;;;0.60;0.60;;;;;;;3.25;42.04;92373.66;5033225;28;20041;-80
2023/01/10 06:48:45;;;;;;;0.85;0.73;;;;;;;3.26;40.11;92360.44;5036579;28;20056;-79
2023/01/10 06:51:15;;;;;;;1.25;0.70;;;;;;;3.15;40.91;92370.94;5018784;28;20507;-79
2023/01/10 06:53:42;;;;;;;0.50;0.50;;;;;;;3.10;41.79;92393.13;5035760;28;20060;-80
2023/01/10 06:56:10;;;;;;;0.73;0.60;;;;;;;3.15;40.80;92376.88;5036705;28;20064;-80
2023/01/10 06:58:40;;;;;;;0.70;0.70;;;;;;;3.26;39.90;92381.13;5037055;28;20503;-79
2023/01/10 07:01:12;;;;;;;0.70;0.65;;;;;;;3.34;40.20;92400.63;5035811;28;20041;-80
2023/01/10 07:03:39;;;;;;;1.02;0.80;;;;;;;3.30;42.73;92386.63;5036613;28;20484;-80
2023/01/10 07:09:27;;;;;;;0.73;0.70;;;;;;;3.12;42.33;92395.50;5036343;28;20044;-79
2023/01/10 07:11:53;;;;;;;0.80;0.80;;;;;;;3.06;42.55;92407.59;5035682;28;20071;-78
2023/01/10 07:14:56;;;;;;;0.82;0.82;;;;;;;2.90;42.98;92413.59;5035448;28;20033;-79
2023/01/10 07:17:22;;;;;;;0.77;0.70;;;;;;;3.08;43.38;92420.25;5014818;28;20034;-79
2023/01/10 07:19:47;;;;;;;0.90;0.80;;;;;;;3.22;42.19;92424.06;5042028;28;20025;-79
2023/01/10 07:22:13;;;;;;;1.25;1.00;;;;;;;3.15;41.54;92441.56;5017784;28;20130;-78
2023/01/10 07:24:57;;;;;;;0.70;0.70;;;;;;;3.28;40.90;92430.84;5032308;28;20446;-78
2023/01/10 07:27:23;;;;;;;1.08;0.77;;;;;;;3.26;41.64;92450.22;5036111;28;20399;-79
2023/01/10 07:29:48;;;;;;;1.20;0.75;;;;;;;3.39;42.22;92436.91;5036366;28;20128;-79
2023/01/10 07:32:14;;;;;;;1.40;0.98;;;;;;;4.66;39.50;92435.63;5034468;28;20079;-79
2023/01/10 07:35:00;;;;;;;0.85;0.77;;;;;;;5.69;38.16;92449.78;5035177;28;20044;-79
2023/01/10 07:37:26;;;;;;;1.85;0.90;;;;;;;6.57;38.06;92441.81;5035051;28;20041;-79
2023/01/10 07:39:51;;;;;;;1.20;0.82;;;;;;;7.35;32.29;92432.00;5035373;28;20049;-81
2023/01/10 07:42:37;;;;;;;0.60;0.60;;;;;;;8.00;31.51;92445.72;5036390;28;20049;-80
2023/01/10 07:45:06;;;;;;;1.10;0.77;;;;;;;8.96;32.01;92446.03;5035573;28;20068;-81
2023/01/10 07:47:31;;;;;;;1.60;0.90;;;;;;;9.57;31.14;92485.59;5030895;28;20102;-81
2023/01/10 07:50:37;;;;;;;0.73;0.60;;;;;;;10.44;28.07;92492.31;5035713;28;20441;-80
2023/01/10 07:53:05;;;;;;;1.00;0.90;;;;;;;10.61;29.72;92495.22;5037598;28;20398;-80
2023/01/10 07:55:33;;;;;;;0.80;0.80;;;;;;;10.92;27.96;92492.13;5040959;28;20030;-80
2023/01/10 08:01:53;;;;;;;1.20;0.82;;;;;;;11.84;27.99;92497.50;5042480;28;20051;-81
2023/01/10 08:04:19;;;;;;;0.77;0.77;;;;;;;12.53;24.54;92491.38;5037492;28;20037;-81
2023/01/10 08:06:45;;;;;;;0.70;0.70;;;;;;;11.59;26.80;92507.41;5019793;28;20064;-81
2023/01/10 08:09:10;;;;;;;1.48;1.00;;;;;;;11.94;26.43;92528.03;5037022;28;20038;-81
2023/01/10 08:11:36;;;;;;;1.00;0.90;;;;;;;12.47;27.35;92514.31;5035681;28;20064;-81
2023/01/10 08:14:02;;;;;;;1.30;1.00;;;;;;;12.83;24.04;92511.66;5037255;28;20400;-81
2023/01/10 08:16:27;;;;;;;1.90;0.82;;;;;;;12.21;26.25;92516.75;5036692;28;20123;-81
2023/01/10 08:22:47;;;;;;;1.10;0.90;;;;;;;14.39;25.88;92537.09;5037113;28;20621;-81
2023/01/10 08:28:36;;;;;;;1.10;1.00;;;;;;;12.78;25.92;92508.38;5036968;28;20030;-81
2023/01/10 08:31:07;;;;;;;2.03;0.93;;;;;;;13.74;23.64;92509.69;5036287;28;20021;-81
2023/01/10 08:33:52;;;;;;;1.00;0.88;;;;;;;13.60;20.19;92507.19;5034726;28;20065;-81
2023/01/10 08:36:20;;;;;;;0.80;0.80;;;;;;;15.02;21.18;92515.72;5038996;28;20041;-81
2023/01/10 08:38:47;;;;;;;4.55;0.98;;;;;;;13.73;22.75;92519.44;5039220;28;20099;-80
2023/01/10 08:45:07;;;;;;;0.80;0.80;;;;;;;15.42;21.25;92518.91;5039788;28;20041;-80
2023/01/10 08:47:33;;;;;;;1.25;0.90;;;;;;;15.55;21.07;92517.94;5037123;28;20415;-81
2023/01/10 08:50:18;;;;;;;0.93;0.70;;;;;;;13.80;20.87;92505.81;5039656;28;20033;-80
2023/01/10 08:52:43;;;;;;;1.92;0.80;;;;;;;14.37;21.99;92534.00;5037488;28;20037;-81
2023/01/10 08:55:10;;;;;;;1.33;0.60;;;;;;;13.00;19.69;92518.13;5038844;28;20057;-81
2023/01/10 08:57:35;;;;;;;0.60;0.60;;;;;;;12.89;21.42;92551.72;5038562;28;20033;-80
2023/01/10 09:00:03;;;;;;;0.82;0.73;;;;;;;13.31;21.01;92547.88;5021257;28;20084;-80
2023/01/10 09:02:28;;;;;;;1.05;0.70;;;;;;;13.73;22.72;92581.78;5039676;28;20052;-82
2023/01/10 09:04:54;;;;;;;1.33;0.88;;;;;;;14.64;20.63;92566.44;5037810;28;20112;-81
2023/01/10 09:07:20;;;;;;;1.63;0.65;;;;;;;14.36;20.24;92562.19;5038280;28;20072;-78
2023/01/10 09:09:45;;;;;;;2.45;0.80;;;;;;;14.93;21.05;92555.31;5002087;28;20439;-78
2023/01/10 09:14:57;;;;;;;1.67;0.90;;;;;;;13.21;23.21;92557.81;5039088;28;20056;-81
2023/01/10 09:17:22;;;;;;;2.95;1.00;;;;;;;13.23;23.10;92592.47;5045799;28;20033;-80
2023/01/10 09:19:48;;;;;;;0.60;0.60;;;;;;;12.95;21.83;92587.34;5047079;28;20037;-80
2023/01/10 09:22:14;;;;;;;1.23;0.70;;;;;;;12.60;22.62;92602.03;5041181;28;20033;-81
2023/01/10 09:24:42;;;;;;;0.52;0.52;;;;;;;12.50;21.67;92576.75;5036125;28;20542;-81
2023/01/10 09:27:09;;;;;;;0.80;0.73;;;;;;;12.36;23.06;92584.66;5035102;28;20045;-81
2023/01/10 09:29:34;;;;;;;0.57;0.57;;;;;;;12.04;21.61;92586.31;5035159;28;20025;-81
2023/01/10 09:32:00;;;;;;;0.55;0.55;;;;;;;11.84;21.92;92600.59;5035687;28;20025;-82
2023/01/10 09:34:25;;;;;;;1.75;0.70;;;;;;;11.74;22.46;92597.38;5034878;28;20044;-81
2023/01/10 09:36:52;;;;;;;0.60;0.60;;;;;;;11.18;22.75;92557.16;5028975;28;20064;-80
2023/01/10 09:39:18;;;;;;;0.73;0.70;;;;;;;11.00;22.81;92598.06;5035706;28;20069;-81
2023/01/10 09:42:48;;;;;;;0.88;0.70;;;;;;;10.39;23.20;92600.47;5035677;28;20025;-80
2023/01/10 09:45:55;;;;;;;0.70;0.70;;;;;;;9.76;25.67;92600.66;4979529;28;20069;-82
2023/01/10 09:48:42;;;;;;;0.65;0.60;;;;;;;10.61;24.31;92623.47;4996322;28;20097;-81
2023/01/10 09:51:23;;;;;;;0.82;0.77;;;;;;;10.82;22.19;92610.88;5034632;28;20038;-82
2023/01/10 09:53:53;;;;;;;2.63;0.77;;;;;;;11.02;22.73;92627.38;5033824;28;20072;-82
2023/01/10 09:56:19;;;;;;;0.57;0.57;;;;;;;11.19;23.71;92624.22;5020524;28;20041;-81
2023/01/10 09:58:45;;;;;;;0.75;0.70;;;;;;;11.46;23.22;92641.91;5018308;28;20034;-81
2023/01/10 10:01:16;;;;;;;0.60;0.60;;;;;;;11.21;22.32;92615.03;5000260;28;20111;-81
2023/01/10 10:03:52;;;;;;;0.95;0.68;;;;;;;11.58;22.87;92633.56;5037249;28;20021;-81
2023/01/10 10:06:19;;;;;;;1.73;0.90;;;;;;;12.09;22.97;92643.16;5038697;28;20033;-81
2023/01/10 10:08:46;;;;;;;0.63;0.63;;;;;;;11.77;21.02;92655.25;5038148;28;20380;-81
2023/01/10 10:11:24;;;;;;;0.50;0.50;;;;;;;11.46;21.14;92645.28;5036615;28;20041;-80
2023/01/10 10:13:55;;;;;;;1.05;0.70;;;;;;;11.87;23.59;92662.19;5038263;28;20033;-79
2023/01/10 10:16:46;;;;;;;0.83;0.63;;;;;;;11.58;21.71;92662.41;5038951;28;20044;-80
2023/01/10 10:23:22;;;;;;;0.60;0.60;;;;;;;12.37;22.39;92672.06;5039169;28;20534;-81
2023/01/10 10:25:58;;;;;;;1.95;0.73;;;;;;;11.30;20.85;92672.00;5036801;28;20056;-77
2023/01/10 10:28:53;;;;;;;1.02;0.65;;;;;;;12.06;22.12;92670.78;5037483;28;20066;-80
2023/01/10 10:31:40;;;;;;;0.60;0.60;;;;;;;12.51;21.68;92678.06;5018394;28;20038;-80
2023/01/10 10:37:24;;;;;;;1.30;0.80;;;;;;;11.80;23.34;92670.44;5036932;28;20112;-80
2023/01/10 10:39:56;;;;;;;0.80;0.80;;;;;;;12.80;22.80;92669.09;5038047;28;20029;-80
2023/01/10 10:42:32;;;;;;;1.10;0.75;;;;;;;12.90;21.89;92687.25;5038486;28;20036;-80
2023/01/10 10:45:16;;;;;;;0.60;0.60;;;;;;;13.52;21.56;92699.88;5038388;28;20037;-80
2023/01/10 10:47:50;;;;;;;0.60;0.60;;;;;;;13.68;21.12;92692.41;5028580;28;20053;-80
2023/01/10 10:50:33;;;;;;;0.40;0.40;;;;;;;13.87;20.56;92698.25;5038483;28;20491;-78
2023/01/10 10:53:03;;;;;;;0.80;0.80;;;;;;;13.85;20.37;92697.78;5042679;28;20037;-79
2023/01/10 10:55:35;;;;;;;1.08;0.70;;;;;;;14.24;19.81;92701.53;5043440;28;20045;-77
2023/01/10 10:58:06;;;;;;;0.60;0.60;;;;;;;13.63;20.17;92695.16;5036892;28;20038;-80
2023/01/10 11:00:32;;;;;;;4.38;0.63;;;;;;;13.80;20.11;92684.72;5043157;28;20205;-80
2023/01/10 11:12:37;;;;;;;1.13;0.60;;;;;;;14.47;19.99;92696.22;5036805;28;20057;-79
2023/01/10 11:15:03;;;;;;;0.55;0.55;;;;;;;14.43;19.16;92697.91;5038310;28;20045;-78
2023/01/10 11:17:32;;;;;;;0.77;0.63;;;;;;;14.22;19.17;92706.34;5037693;28;20041;-80
2023/01/10 11:20:06;;;;;;;0.70;0.70;;;;;;;13.91;20.31;92704.47;5038113;28;20168;-79
2023/01/10 11:22:43;;;;;;;0.75;0.50;;;;;;;14.10;20.08;92692.97;5037921;28;20403;-79
2023/01/10 11:25:15;;;;;;;0.60;0.60;;;;;;;14.41;20.25;92697.44;5038659;28;20051;-79
2023/01/10 11:27:52;;;;;;;0.65;0.50;;;;;;;13.61;20.14;92689.44;5037799;28;20045;-79
2023/01/10 11:30:28;;;;;;;0.70;0.63;;;;;;;13.75;21.00;92700.66;5036297;28;20025;-79
2023/01/10 11:32:57;;;;;;;0.50;0.50;;;;;;;13.85;18.60;92691.75;5041399;28;20034;-79
2023/01/10 11:35:27;;;;;;;0.45;0.45;;;;;;;13.74;20.05;92694.63;5042364;28;20089;-79
2023/01/10 11:38:04;;;;;;;0.85;0.75;;;;;;;13.99;20.24;92696.94;5040098;28;20097;-80
2023/01/10 11:40:32;;;;;;;0.43;0.40;;;;;;;14.32;19.95;92698.19;5040067;28;20041;-80
2023/01/10 11:42:59;;;;;;;0.60;0.60;;;;;;;14.34;19.90;92701.28;5039899;28;20160;-79
2023/01/10 11:45:33;;;;;;;0.73;0.73;;;;;;;14.37;20.04;92702.53;5041413;28;20376;-80
2023/01/10 11:48:21;;;;;;;0.63;0.60;;;;;;;14.65;20.82;92708.38;5036014;28;20519;-80
2023/01/10 11:50:50;;;;;;;1.80;0.75;;;;;;;14.95;19.56;92706.78;5021263;28;20046;-80
2023/01/10 11:53:37;;;;;;;0.88;0.68;;;;;;;15.20;18.58;92696.56;5039332;28;20059;-79
2023/01/10 11:56:04;;;;;;;0.60;0.60;;;;;;;14.94;19.90;92696.53;5033605;28;20478;-79
2023/01/10 11:58:32;;;;;;;0.70;0.70;;;;;;;14.08;18.33;92700.38;5038326;28;20033;-79
2023/01/10 12:00:57;;;;;;;0.73;0.60;;;;;;;13.97;19.14;92701.72;5021117;28;20123;-79
2023/01/10 12:03:31;;;;;;;0.73;0.70;;;;;;;14.11;20.49;92705.03;5037691;28;20101;-79
2023/01/10 12:06:05;;;;;;;1.65;0.70;;;;;;;14.32;20.14;92695.56;5036778;28;20083;-78
2023/01/10 12:08:32;;;;;;;0.95;0.75;;;;;;;14.68;20.14;92697.25;5036653;28;20030;-80
2023/01/10 12:11:18;;;;;;;0.50;0.50;;;;;;;14.91;19.80;92710.34;5023942;28;20137;-80
2023/01/10 12:13:51;;;;;;;0.57;0.57;;;;;;;14.97;19.14;92698.53;5022757;28;20119;-79
2023/01/10 12:16:33;;;;;;;1.00;0.60;;;;;;;15.14;18.90;92698.56;4991039;28;20053;-79
2023/01/10 12:19:09;;;;;;;0.60;0.60;;;;;;;15.20;18.82;92705.25;5022046;28;20056;-79
2023/01/10 12:21:43;;;;;;;0.70;0.70;;;;;;;14.83;18.56;92706.59;5020539;28;20128;-79
2023/01/10 12:24:31;;;;;;;0.60;0.60;;;;;;;14.43;19.54;92703.94;5035321;28;20044;-80
2023/01/10 12:27:01;;;;;;;0.82;0.80;;;;;;;13.95;19.99;92702.78;5039471;28;20044;-79
2023/01/10 12:29:38;;;;;;;0.80;0.80;;;;;;;13.72;20.04;92694.13;5041212;28;20033;-79
2023/01/10 12:32:10;;;;;;;0.70;0.70;;;;;;;13.90;21.19;92689.75;5042245;28;20221;-78
2023/01/10 12:34:52;;;;;;;1.40;0.93;;;;;;;12.54;20.87;92695.88;5015349;28;20036;-79
2023/01/10 12:37:36;;;;;;;1.02;0.88;;;;;;;12.96;21.99;92704.47;5041483;28;20057;-79
2023/01/10 12:40:12;;;;;;;1.52;0.80;;;;;;;13.33;19.90;92697.44;5042842;28;20276;-78